sensor_id;sensor_type;location;lat;lon;timestamp;temperature;humidity
9537;DHT22;4807;48.024;11.726;2023-06-04T03:12:15;8.20;99.90
9537;DHT22;4807;48.024;11.726;2023-06-04T03:15:24;8.10;99.90
9537;DHT22;4807;48.024;11.726;2023-06-04T03:18:34;8.10;99.90
9537;DHT22;4807;48.024;11.726;2023-06-04T03:21:43;8.10;99.90
9537;DHT22;4807;48.024;11.726;2023-06-04T03:24:51;8.00;99.90
9537;DHT22;4807;48.024;11.726;2023-06-04T03:28:00;8.00;99.90
9537;DHT22;4807;48.024;11.726;2023-06-04T03:31:08;8.10;99.90
9537;DHT22;4807;48.024;11.726;2023-06-04T03:34:18;8.10;99.90
9537;DHT22;4807;48.024;11.726;2023-06-04T03:37:27;8.20;99.90
9537;DHT22;4807;48.024;11.726;2023-06-04T03:40:36;8.30;99.90
9537;DHT22;4807;48.024;11.726;2023-06-04T03:43:46;8.30;99.90
9537;DHT22;4807;48.024;11.726;2023-06-04T03:46:55;8.40;99.90
9537;DHT22;4807;48.024;11.726;2023-06-04T03:50:06;8.60;99.90
9537;DHT22;4807;48.024;11.726;2023-06-04T03:53:16;8.70;99.90
9537;DHT22;4807;48.024;11.726;2023-06-04T03:56:24;8.50;99.90
9537;DHT22;4807;48.024;11.726;2023-06-04T03:59:35;8.30;99.90
9537;DHT22;4807;48.024;11.726;2023-06-04T04:02:43;8.20;99.90
9537;DHT22;4807;48.024;11.726;2023-06-04T04:06:01;8.10;99.90
9537;DHT22;4807;48.024;11.726;2023-06-04T04:09:09;8.10;99.90
9537;DHT22;4807;48.024;11.726;2023-06-04T04:12:17;8.20;99.90
9537;DHT22;4807;48.024;11.726;2023-06-04T04:15:26;8.40;99.90
9537;DHT22;4807;48.024;11.726;2023-06-04T04:18:36;8.40;99.90
9537;DHT22;4807;48.024;11.726;2023-06-04T04:21:46;8.60;99.90
9537;DHT22;4807;48.024;11.726;2023-06-04T04:24:57;8.80;99.90
9537;DHT22;4807;48.024;11.726;2023-06-04T04:28:06;8.90;99.90
9537;DHT22;4807;48.024;11.726;2023-06-04T04:31:16;9.20;99.90
9537;DHT22;4807;48.024;11.726;2023-06-04T04:34:26;9.50;99.90
9537;DHT22;4807;48.024;11.726;2023-06-04T04:37:36;9.60;99.90
9537;DHT22;4807;48.024;11.726;2023-06-04T04:40:46;9.70;99.90
9537;DHT22;4807;48.024;11.726;2023-06-04T04:44:02;9.80;99.90
9537;DHT22;4807;48.024;11.726;2023-06-04T04:47:12;9.90;99.90
9537;DHT22;4807;48.024;11.726;2023-06-04T04:50:20;10.10;99.90
9537;DHT22;4807;48.024;11.726;2023-06-04T04:53:31;10.20;99.90
9537;DHT22;4807;48.024;11.726;2023-06-04T04:56:39;10.20;99.90
9537;DHT22;4807;48.024;11.726;2023-06-04T04:59:48;10.30;99.90
9537;DHT22;4807;48.024;11.726;2023-06-04T05:02:56;10.40;99.90
9537;DHT22;4807;48.024;11.726;2023-06-04T05:06:04;10.60;99.90
9537;DHT22;4807;48.024;11.726;2023-06-04T05:09:14;11.00;99.90
9537;DHT22;4807;48.024;11.726;2023-06-04T05:12:25;11.20;99.90
9537;DHT22;4807;48.024;11.726;2023-06-04T05:15:34;11.40;99.90
9537;DHT22;4807;48.024;11.726;2023-06-04T05:18:43;11.40;99.90
9537;DHT22;4807;48.024;11.726;2023-06-04T05:21:59;11.50;99.90
9537;DHT22;4807;48.024;11.726;2023-06-04T05:25:10;11.50;99.90
9537;DHT22;4807;48.024;11.726;2023-06-04T05:28:18;11.60;99.90
9537;DHT22;4807;48.024;11.726;2023-06-04T05:31:27;11.70;99.90
9537;DHT22;4807;48.024;11.726;2023-06-04T05:34:38;11.90;99.90
9537;DHT22;4807;48.024;11.726;2023-06-04T05:37:47;12.00;99.90
9537;DHT22;4807;48.024;11.726;2023-06-04T05:41:06;12.20;99.90
9537;DHT22;4807;48.024;11.726;2023-06-04T05:44:17;12.50;98.80
9537;DHT22;4807;48.024;11.726;2023-06-04T05:47:27;12.60;98.70
9537;DHT22;4807;48.024;11.726;2023-06-04T05:50:36;12.80;98.40
9537;DHT22;4807;48.024;11.726;2023-06-04T05:53:45;12.90;98.40
9537;DHT22;4807;48.024;11.726;2023-06-04T05:56:55;13.10;97.10
9537;DHT22;4807;48.024;11.726;2023-06-04T06:00:05;13.30;97.00
9537;DHT22;4807;48.024;11.726;2023-06-04T06:03:20;13.30;97.20
9537;DHT22;4807;48.024;11.726;2023-06-04T06:06:29;13.60;95.00
9537;DHT22;4807;48.024;11.726;2023-06-04T06:09:38;13.70;94.40
9537;DHT22;4807;48.024;11.726;2023-06-04T06:12:47;13.90;95.20
9537;DHT22;4807;48.024;11.726;2023-06-04T06:15:56;14.10;93.80
9537;DHT22;4807;48.024;11.726;2023-06-04T06:19:05;14.40;93.40
9537;DHT22;4807;48.024;11.726;2023-06-04T06:22:13;15.60;91.70
9537;DHT22;4807;48.024;11.726;2023-06-04T06:25:22;18.10;87.60
9537;DHT22;4807;48.024;11.726;2023-06-04T06:28:44;20.80;76.10
9537;DHT22;4807;48.024;11.726;2023-06-04T06:31:53;22.50;67.50
9537;DHT22;4807;48.024;11.726;2023-06-04T06:35:03;22.80;64.40
9537;DHT22;4807;48.024;11.726;2023-06-04T06:38:12;23.30;62.10
9537;DHT22;4807;48.024;11.726;2023-06-04T06:41:24;23.10;66.90
9537;DHT22;4807;48.024;11.726;2023-06-04T06:44:34;24.00;60.70
9537;DHT22;4807;48.024;11.726;2023-06-04T06:47:42;24.80;59.30
9537;DHT22;4807;48.024;11.726;2023-06-04T06:50:51;23.60;59.90
9537;DHT22;4807;48.024;11.726;2023-06-04T06:53:59;23.00;62.80
9537;DHT22;4807;48.024;11.726;2023-06-04T06:57:07;23.80;62.70
9537;DHT22;4807;48.024;11.726;2023-06-04T07:00:17;23.20;64.40
9537;DHT22;4807;48.024;11.726;2023-06-04T07:03:26;23.70;61.60
9537;DHT22;4807;48.024;11.726;2023-06-04T07:06:34;22.90;64.80
9537;DHT22;4807;48.024;11.726;2023-06-04T07:09:44;23.80;65.20
9537;DHT22;4807;48.024;11.726;2023-06-04T07:12:52;25.20;62.50
9537;DHT22;4807;48.024;11.726;2023-06-04T07:16:02;25.00;60.50
9537;DHT22;4807;48.024;11.726;2023-06-04T07:19:10;25.30;58.90
9537;DHT22;4807;48.024;11.726;2023-06-04T07:22:18;25.80;59.30
9537;DHT22;4807;48.024;11.726;2023-06-04T07:25:26;25.40;58.50
9537;DHT22;4807;48.024;11.726;2023-06-04T07:28:35;25.40;59.10
9537;DHT22;4807;48.024;11.726;2023-06-04T07:31:45;25.20;59.00
9537;DHT22;4807;48.024;11.726;2023-06-04T07:34:53;25.20;59.50
9537;DHT22;4807;48.024;11.726;2023-06-04T07:38:01;25.40;60.70
9537;DHT22;4807;48.024;11.726;2023-06-04T07:41:10;25.50;61.70
9537;DHT22;4807;48.024;11.726;2023-06-04T07:44:18;24.10;64.50
9537;DHT22;4807;48.024;11.726;2023-06-04T07:47:28;25.30;60.60
9537;DHT22;4807;48.024;11.726;2023-06-04T07:50:36;26.30;58.90
9537;DHT22;4807;48.024;11.726;2023-06-04T07:53:47;27.20;58.50
9537;DHT22;4807;48.024;11.726;2023-06-04T08:00:07;28.60;56.70
9537;DHT22;4807;48.024;11.726;2023-06-04T08:03:20;28.30;61.60
9537;DHT22;4807;48.024;11.726;2023-06-04T08:06:29;28.10;59.60
9537;DHT22;4807;48.024;11.726;2023-06-04T08:09:37;28.10;59.50
9537;DHT22;4807;48.024;11.726;2023-06-04T08:12:45;27.80;61.00
9537;DHT22;4807;48.024;11.726;2023-06-04T08:15:57;27.30;63.70
9537;DHT22;4807;48.024;11.726;2023-06-04T08:19:07;27.40;64.90
9537;DHT22;4807;48.024;11.726;2023-06-04T08:22:15;27.70;54.70
9537;DHT22;4807;48.024;11.726;2023-06-04T08:25:24;27.60;54.70
9537;DHT22;4807;48.024;11.726;2023-06-04T08:28:32;27.70;55.20
9537;DHT22;4807;48.024;11.726;2023-06-04T08:31:40;28.20;52.00
9537;DHT22;4807;48.024;11.726;2023-06-04T08:34:50;28.00;53.10
9537;DHT22;4807;48.024;11.726;2023-06-04T08:37:59;27.70;53.30
9537;DHT22;4807;48.024;11.726;2023-06-04T08:41:17;27.80;51.80
9537;DHT22;4807;48.024;11.726;2023-06-04T08:44:33;28.00;50.70
9537;DHT22;4807;48.024;11.726;2023-06-04T08:47:43;27.50;50.90
9537;DHT22;4807;48.024;11.726;2023-06-04T08:50:57;27.00;52.80
9537;DHT22;4807;48.024;11.726;2023-06-04T08:54:08;27.20;50.20
9537;DHT22;4807;48.024;11.726;2023-06-04T08:57:19;26.80;51.60
9537;DHT22;4807;48.024;11.726;2023-06-04T09:00:28;26.50;51.70
9537;DHT22;4807;48.024;11.726;2023-06-04T09:03:36;26.30;51.20
9537;DHT22;4807;48.024;11.726;2023-06-04T09:06:47;26.20;54.20
9537;DHT22;4807;48.024;11.726;2023-06-04T09:09:55;26.40;54.50
9537;DHT22;4807;48.024;11.726;2023-06-04T09:13:19;26.40;51.40
9537;DHT22;4807;48.024;11.726;2023-06-04T09:16:30;26.10;51.70
9537;DHT22;4807;48.024;11.726;2023-06-04T09:19:43;25.80;51.40
9537;DHT22;4807;48.024;11.726;2023-06-04T09:22:53;25.80;54.10
9537;DHT22;4807;48.024;11.726;2023-06-04T09:26:07;25.60;54.80
9537;DHT22;4807;48.024;11.726;2023-06-04T09:29:18;25.10;51.90
9537;DHT22;4807;48.024;11.726;2023-06-04T09:32:29;25.20;53.10
9537;DHT22;4807;48.024;11.726;2023-06-04T09:35:38;25.20;53.80
9537;DHT22;4807;48.024;11.726;2023-06-04T09:38:48;25.20;54.30
9537;DHT22;4807;48.024;11.726;2023-06-04T09:41:58;24.70;55.80
9537;DHT22;4807;48.024;11.726;2023-06-04T09:45:09;25.00;53.90
9537;DHT22;4807;48.024;11.726;2023-06-04T09:48:21;25.00;53.50
9537;DHT22;4807;48.024;11.726;2023-06-04T09:51:31;24.50;54.40
9537;DHT22;4807;48.024;11.726;2023-06-04T09:54:41;23.90;55.20
9537;DHT22;4807;48.024;11.726;2023-06-04T09:57:50;23.70;60.20
9537;DHT22;4807;48.024;11.726;2023-06-04T10:01:01;23.60;58.10
9537;DHT22;4807;48.024;11.726;2023-06-04T10:04:13;23.30;58.50
9537;DHT22;4807;48.024;11.726;2023-06-04T10:07:23;23.20;55.40
9537;DHT22;4807;48.024;11.726;2023-06-04T10:10:35;22.70;56.80
9537;DHT22;4807;48.024;11.726;2023-06-04T10:13:49;22.30;57.60
9537;DHT22;4807;48.024;11.726;2023-06-04T10:17:01;22.60;59.70
9537;DHT22;4807;48.024;11.726;2023-06-04T10:20:12;23.00;58.60
9537;DHT22;4807;48.024;11.726;2023-06-04T10:23:22;22.80;57.00
9537;DHT22;4807;48.024;11.726;2023-06-04T10:26:34;22.80;57.90
9537;DHT22;4807;48.024;11.726;2023-06-04T10:29:44;22.90;58.10
9537;DHT22;4807;48.024;11.726;2023-06-04T10:32:54;23.40;59.40
9537;DHT22;4807;48.024;11.726;2023-06-04T10:36:16;23.50;55.80
9537;DHT22;4807;48.024;11.726;2023-06-04T10:39:27;23.20;58.20
9537;DHT22;4807;48.024;11.726;2023-06-04T10:42:42;23.40;60.50
9537;DHT22;4807;48.024;11.726;2023-06-04T10:45:51;23.50;56.20
9537;DHT22;4807;48.024;11.726;2023-06-04T10:48:59;23.40;56.80
9537;DHT22;4807;48.024;11.726;2023-06-04T10:52:10;23.30;57.60
9537;DHT22;4807;48.024;11.726;2023-06-04T10:55:19;22.90;57.80
9537;DHT22;4807;48.024;11.726;2023-06-04T10:58:33;22.90;58.20
9537;DHT22;4807;48.024;11.726;2023-06-04T11:01:42;23.10;57.50
9537;DHT22;4807;48.024;11.726;2023-06-04T11:04:59;23.10;56.20
9537;DHT22;4807;48.024;11.726;2023-06-04T11:08:12;23.20;58.80
9537;DHT22;4807;48.024;11.726;2023-06-04T11:11:21;23.40;56.40
9537;DHT22;4807;48.024;11.726;2023-06-04T11:14:31;23.10;55.70
9537;DHT22;4807;48.024;11.726;2023-06-04T11:17:49;22.60;57.10
9537;DHT22;4807;48.024;11.726;2023-06-04T11:21:00;22.70;58.30
9537;DHT22;4807;48.024;11.726;2023-06-04T11:24:08;23.10;57.60
9537;DHT22;4807;48.024;11.726;2023-06-04T11:27:17;23.30;57.90
9537;DHT22;4807;48.024;11.726;2023-06-04T11:30:43;23.40;58.50
9537;DHT22;4807;48.024;11.726;2023-06-04T11:33:52;23.70;56.20
9537;DHT22;4807;48.024;11.726;2023-06-04T11:37:08;23.90;56.80
9537;DHT22;4807;48.024;11.726;2023-06-04T11:40:17;23.70;53.80
9537;DHT22;4807;48.024;11.726;2023-06-04T11:43:27;23.40;54.40
9537;DHT22;4807;48.024;11.726;2023-06-04T11:46:40;23.20;56.00
9537;DHT22;4807;48.024;11.726;2023-06-04T11:49:54;23.30;55.40
9537;DHT22;4807;48.024;11.726;2023-06-04T11:53:03;23.50;54.20
9537;DHT22;4807;48.024;11.726;2023-06-04T11:56:12;23.60;55.90
9537;DHT22;4807;48.024;11.726;2023-06-04T11:59:21;24.00;55.20
9537;DHT22;4807;48.024;11.726;2023-06-04T12:02:31;24.30;55.20
9537;DHT22;4807;48.024;11.726;2023-06-04T12:05:40;24.60;55.10
9537;DHT22;4807;48.024;11.726;2023-06-04T12:08:49;24.90;53.50
9537;DHT22;4807;48.024;11.726;2023-06-04T12:12:02;24.50;50.90
9537;DHT22;4807;48.024;11.726;2023-06-04T12:15:11;23.80;52.10
9537;DHT22;4807;48.024;11.726;2023-06-04T12:18:29;23.50;52.40
9537;DHT22;4807;48.024;11.726;2023-06-04T12:21:37;23.30;55.00
9537;DHT22;4807;48.024;11.726;2023-06-04T12:24:47;23.40;54.00
9537;DHT22;4807;48.024;11.726;2023-06-04T12:28:00;23.40;54.70
9537;DHT22;4807;48.024;11.726;2023-06-04T12:31:15;23.70;56.20
9537;DHT22;4807;48.024;11.726;2023-06-04T12:34:26;24.00;54.50
9537;DHT22;4807;48.024;11.726;2023-06-04T12:37:34;23.80;51.80
9537;DHT22;4807;48.024;11.726;2023-06-04T12:40:43;23.50;52.40
9537;DHT22;4807;48.024;11.726;2023-06-04T12:43:51;23.40;53.80
9537;DHT22;4807;48.024;11.726;2023-06-04T12:46:59;23.40;51.70
9537;DHT22;4807;48.024;11.726;2023-06-04T12:50:10;23.40;52.80
9537;DHT22;4807;48.024;11.726;2023-06-04T12:53:18;23.40;53.20
9537;DHT22;4807;48.024;11.726;2023-06-04T12:56:27;23.20;50.80
9537;DHT22;4807;48.024;11.726;2023-06-04T12:59:35;22.90;52.70
9537;DHT22;4807;48.024;11.726;2023-06-04T13:02:43;22.80;53.00
9537;DHT22;4807;48.024;11.726;2023-06-04T13:05:53;22.90;52.60
9537;DHT22;4807;48.024;11.726;2023-06-04T13:09:02;23.10;53.90
9537;DHT22;4807;48.024;11.726;2023-06-04T13:12:15;23.50;51.40
9537;DHT22;4807;48.024;11.726;2023-06-04T13:15:23;23.40;51.30
9537;DHT22;4807;48.024;11.726;2023-06-04T13:18:32;23.30;51.80
9537;DHT22;4807;48.024;11.726;2023-06-04T13:21:42;23.50;51.10
9537;DHT22;4807;48.024;11.726;2023-06-04T13:24:50;23.60;52.60
9537;DHT22;4807;48.024;11.726;2023-06-04T13:27:58;23.80;50.90
9537;DHT22;4807;48.024;11.726;2023-06-04T13:31:07;23.40;50.90
9537;DHT22;4807;48.024;11.726;2023-06-04T13:34:15;23.40;52.50
9537;DHT22;4807;48.024;11.726;2023-06-04T13:37:36;21.30;51.10
9537;DHT22;4807;48.024;11.726;2023-06-04T13:40:44;23.80;51.90
9537;DHT22;4807;48.024;11.726;2023-06-04T13:43:53;24.20;51.20
9537;DHT22;4807;48.024;11.726;2023-06-04T13:47:01;24.60;51.50
9537;DHT22;4807;48.024;11.726;2023-06-04T13:50:11;25.20;50.20
9537;DHT22;4807;48.024;11.726;2023-06-04T13:53:20;25.00;50.20
9537;DHT22;4807;48.024;11.726;2023-06-04T13:56:29;24.50;50.70
9537;DHT22;4807;48.024;11.726;2023-06-04T13:59:37;24.10;51.90
9537;DHT22;4807;48.024;11.726;2023-06-04T14:02:46;24.00;51.20
9537;DHT22;4807;48.024;11.726;2023-06-04T14:05:54;24.00;51.90
9537;DHT22;4807;48.024;11.726;2023-06-04T14:09:04;23.80;51.40
9537;DHT22;4807;48.024;11.726;2023-06-04T14:12:16;24.10;53.80
9537;DHT22;4807;48.024;11.726;2023-06-04T14:15:25;23.90;50.80
9537;DHT22;4807;48.024;11.726;2023-06-04T14:18:33;23.90;51.30
9537;DHT22;4807;48.024;11.726;2023-06-04T14:21:41;23.70;51.60
9537;DHT22;4807;48.024;11.726;2023-06-04T14:24:52;23.70;52.30
9537;DHT22;4807;48.024;11.726;2023-06-04T14:28:00;23.70;53.30
9537;DHT22;4807;48.024;11.726;2023-06-04T14:31:09;23.90;53.10
9537;DHT22;4807;48.024;11.726;2023-06-04T14:34:17;23.80;53.00
9537;DHT22;4807;48.024;11.726;2023-06-04T14:37:25;23.80;51.50
9537;DHT22;4807;48.024;11.726;2023-06-04T14:40:36;23.80;53.40
9537;DHT22;4807;48.024;11.726;2023-06-04T14:43:45;23.80;54.50
9537;DHT22;4807;48.024;11.726;2023-06-04T14:46:53;23.80;53.00
9537;DHT22;4807;48.024;11.726;2023-06-04T14:50:01;23.30;53.10
9537;DHT22;4807;48.024;11.726;2023-06-04T14:53:11;23.20;54.60
9537;DHT22;4807;48.024;11.726;2023-06-04T14:56:21;23.30;53.50
9537;DHT22;4807;48.024;11.726;2023-06-04T14:59:29;23.40;51.80
9537;DHT22;4807;48.024;11.726;2023-06-04T15:02:37;23.80;54.00
9537;DHT22;4807;48.024;11.726;2023-06-04T15:05:46;23.80;52.00
9537;DHT22;4807;48.024;11.726;2023-06-04T15:08:54;23.60;52.50
9537;DHT22;4807;48.024;11.726;2023-06-04T15:12:04;23.50;51.90
9537;DHT22;4807;48.024;11.726;2023-06-04T15:15:13;23.70;52.60
9537;DHT22;4807;48.024;11.726;2023-06-04T15:18:22;23.60;53.20
9537;DHT22;4807;48.024;11.726;2023-06-04T15:21:31;23.70;54.40
9537;DHT22;4807;48.024;11.726;2023-06-04T15:24:39;23.90;54.00
9537;DHT22;4807;48.024;11.726;2023-06-04T15:27:49;24.00;52.40
9537;DHT22;4807;48.024;11.726;2023-06-04T15:30:57;23.90;51.10
9537;DHT22;4807;48.024;11.726;2023-06-04T15:34:06;24.10;52.60
9537;DHT22;4807;48.024;11.726;2023-06-04T15:37:15;24.10;52.10
9537;DHT22;4807;48.024;11.726;2023-06-04T15:40:23;24.20;52.80
9537;DHT22;4807;48.024;11.726;2023-06-04T15:43:33;24.10;54.10
9537;DHT22;4807;48.024;11.726;2023-06-04T15:46:42;24.10;53.70
9537;DHT22;4807;48.024;11.726;2023-06-04T15:49:50;23.90;53.10
9537;DHT22;4807;48.024;11.726;2023-06-04T15:52:59;23.80;53.20
9537;DHT22;4807;48.024;11.726;2023-06-04T15:56:07;23.60;52.60
9537;DHT22;4807;48.024;11.726;2023-06-04T15:59:19;23.50;53.70
9537;DHT22;4807;48.024;11.726;2023-06-04T16:02:27;23.40;53.00
9537;DHT22;4807;48.024;11.726;2023-06-04T16:05:35;23.20;54.00
9537;DHT22;4807;48.024;11.726;2023-06-04T16:08:44;23.20;54.80
9537;DHT22;4807;48.024;11.726;2023-06-04T16:11:53;23.30;55.30
9537;DHT22;4807;48.024;11.726;2023-06-04T16:15:03;23.40;55.70
9537;DHT22;4807;48.024;11.726;2023-06-04T16:18:12;23.50;56.10
9537;DHT22;4807;48.024;11.726;2023-06-04T16:21:21;23.60;54.60
9537;DHT22;4807;48.024;11.726;2023-06-04T16:24:30;23.50;55.00
9537;DHT22;4807;48.024;11.726;2023-06-04T16:27:38;23.50;55.10
9537;DHT22;4807;48.024;11.726;2023-06-04T16:30:48;23.40;54.10
9537;DHT22;4807;48.024;11.726;2023-06-04T16:33:56;23.30;54.30
9537;DHT22;4807;48.024;11.726;2023-06-04T16:37:05;23.10;53.40
9537;DHT22;4807;48.024;11.726;2023-06-04T16:40:13;23.00;55.20
9537;DHT22;4807;48.024;11.726;2023-06-04T16:43:22;24.80;54.50
9537;DHT22;4807;48.024;11.726;2023-06-04T16:46:32;23.00;52.30
9537;DHT22;4807;48.024;11.726;2023-06-04T16:49:40;23.10;54.60
9537;DHT22;4807;48.024;11.726;2023-06-04T16:52:49;23.20;53.60
9537;DHT22;4807;48.024;11.726;2023-06-04T16:55:57;23.20;53.40
9537;DHT22;4807;48.024;11.726;2023-06-04T16:59:06;23.30;53.10
9537;DHT22;4807;48.024;11.726;2023-06-04T17:02:20;23.30;53.20
9537;DHT22;4807;48.024;11.726;2023-06-04T17:05:28;22.80;53.70
9537;DHT22;4807;48.024;11.726;2023-06-04T17:08:37;22.80;54.30
9537;DHT22;4807;48.024;11.726;2023-06-04T17:11:46;22.70;54.50
9537;DHT22;4807;48.024;11.726;2023-06-04T17:14:55;22.40;55.60
9537;DHT22;4807;48.024;11.726;2023-06-04T17:18:05;22.20;55.20
9537;DHT22;4807;48.024;11.726;2023-06-04T17:21:17;21.90;55.20
9537;DHT22;4807;48.024;11.726;2023-06-04T17:24:25;21.80;56.00
9537;DHT22;4807;48.024;11.726;2023-06-04T17:27:37;21.60;56.50
9537;DHT22;4807;48.024;11.726;2023-06-04T17:30:45;21.50;56.50
9537;DHT22;4807;48.024;11.726;2023-06-04T17:33:55;21.40;57.50
9537;DHT22;4807;48.024;11.726;2023-06-04T17:37:04;21.30;57.70
9537;DHT22;4807;48.024;11.726;2023-06-04T17:40:12;21.10;57.50
9537;DHT22;4807;48.024;11.726;2023-06-04T17:43:21;21.10;58.20
9537;DHT22;4807;48.024;11.726;2023-06-04T17:46:30;21.00;57.80
9537;DHT22;4807;48.024;11.726;2023-06-04T17:49:40;20.90;58.80
9537;DHT22;4807;48.024;11.726;2023-06-04T17:52:49;20.80;58.90
9537;DHT22;4807;48.024;11.726;2023-06-04T17:55:58;20.70;59.20
9537;DHT22;4807;48.024;11.726;2023-06-04T17:59:06;20.70;59.50
9537;DHT22;4807;48.024;11.726;2023-06-04T18:02:15;20.60;59.40
9537;DHT22;4807;48.024;11.726;2023-06-04T18:05:25;20.40;59.30
9537;DHT22;4807;48.024;11.726;2023-06-04T18:08:33;20.40;59.90
9537;DHT22;4807;48.024;11.726;2023-06-04T18:11:42;20.30;59.90
9537;DHT22;4807;48.024;11.726;2023-06-04T18:14:50;20.10;60.90
9537;DHT22;4807;48.024;11.726;2023-06-04T18:17:58;20.00;60.80
9537;DHT22;4807;48.024;11.726;2023-06-04T18:21:08;20.00;60.40
9537;DHT22;4807;48.024;11.726;2023-06-04T18:24:17;19.90;60.50
9537;DHT22;4807;48.024;11.726;2023-06-04T18:27:25;19.80;60.80
9537;DHT22;4807;48.024;11.726;2023-06-04T18:30:34;19.70;61.20
9537;DHT22;4807;48.024;11.726;2023-06-04T18:33:51;19.70;61.90
9537;DHT22;4807;48.024;11.726;2023-06-04T18:37:08;19.50;61.80
9537;DHT22;4807;48.024;11.726;2023-06-04T18:40:16;19.40;62.80
9537;DHT22;4807;48.024;11.726;2023-06-04T18:43:25;19.20;63.00
9537;DHT22;4807;48.024;11.726;2023-06-04T18:46:33;19.00;64.60
9537;DHT22;4807;48.024;11.726;2023-06-04T18:49:41;19.00;65.10
9537;DHT22;4807;48.024;11.726;2023-06-04T18:52:50;18.90;64.90
9537;DHT22;4807;48.024;11.726;2023-06-04T18:56:01;19.00;64.80
9537;DHT22;4807;48.024;11.726;2023-06-04T18:59:11;18.90;65.40
9537;DHT22;4807;48.024;11.726;2023-06-04T19:02:20;18.70;66.40
9537;DHT22;4807;48.024;11.726;2023-06-04T19:05:29;18.60;70.10
9537;DHT22;4807;48.024;11.726;2023-06-04T19:08:39;18.50;70.30
9537;DHT22;4807;48.024;11.726;2023-06-04T19:11:47;18.20;71.70
9537;DHT22;4807;48.024;11.726;2023-06-04T19:14:57;17.90;72.40
9537;DHT22;4807;48.024;11.726;2023-06-04T19:18:06;17.80;73.70
9537;DHT22;4807;48.024;11.726;2023-06-04T19:21:14;17.60;75.00
9537;DHT22;4807;48.024;11.726;2023-06-04T19:24:25;17.50;72.20
9537;DHT22;4807;48.024;11.726;2023-06-04T19:27:36;17.50;73.90
9537;DHT22;4807;48.024;11.726;2023-06-04T19:30:44;17.50;72.60
9537;DHT22;4807;48.024;11.726;2023-06-04T19:33:53;17.40;72.00
9537;DHT22;4807;48.024;11.726;2023-06-04T19:37:02;17.40;72.20
9537;DHT22;4807;48.024;11.726;2023-06-04T19:40:14;17.40;72.00
9537;DHT22;4807;48.024;11.726;2023-06-04T19:43:23;17.40;72.20
9537;DHT22;4807;48.024;11.726;2023-06-04T19:46:32;17.40;71.70
9537;DHT22;4807;48.024;11.726;2023-06-04T19:49:41;17.40;72.40
9537;DHT22;4807;48.024;11.726;2023-06-04T19:52:49;17.30;72.40
9537;DHT22;4807;48.024;11.726;2023-06-04T19:55:59;17.20;72.60
9537;DHT22;4807;48.024;11.726;2023-06-04T19:59:08;17.20;73.80
9537;DHT22;4807;48.024;11.726;2023-06-04T20:02:17;17.10;75.80
9537;DHT22;4807;48.024;11.726;2023-06-04T20:05:25;16.90;74.40
9537;DHT22;4807;48.024;11.726;2023-06-04T20:08:33;16.90;75.50
9537;DHT22;4807;48.024;11.726;2023-06-04T20:11:43;16.90;75.70
9537;DHT22;4807;48.024;11.726;2023-06-04T20:14:52;16.80;75.90
9537;DHT22;4807;48.024;11.726;2023-06-04T20:18:01;16.70;77.10
9537;DHT22;4807;48.024;11.726;2023-06-04T20:21:10;16.60;76.80
9537;DHT22;4807;48.024;11.726;2023-06-04T20:24:19;16.50;77.90
9537;DHT22;4807;48.024;11.726;2023-06-04T20:27:28;16.50;78.40
9537;DHT22;4807;48.024;11.726;2023-06-04T20:30:37;16.50;77.60
9537;DHT22;4807;48.024;11.726;2023-06-04T20:33:47;16.50;78.40
9537;DHT22;4807;48.024;11.726;2023-06-04T20:36:58;16.50;78.80
9537;DHT22;4807;48.024;11.726;2023-06-04T20:40:10;16.50;78.00
9537;DHT22;4807;48.024;11.726;2023-06-04T20:43:21;16.40;78.20
9537;DHT22;4807;48.024;11.726;2023-06-04T20:46:30;16.30;78.50
9537;DHT22;4807;48.024;11.726;2023-06-04T20:49:38;16.30;78.80
9537;DHT22;4807;48.024;11.726;2023-06-04T20:52:46;16.30;80.20
9537;DHT22;4807;48.024;11.726;2023-06-04T20:55:55;16.10;80.60
9537;DHT22;4807;48.024;11.726;2023-06-04T20:59:05;16.10;81.00
9537;DHT22;4807;48.024;11.726;2023-06-04T21:02:13;16.10;81.50
9537;DHT22;4807;48.024;11.726;2023-06-04T21:05:21;15.90;80.80
9537;DHT22;4807;48.024;11.726;2023-06-04T21:08:30;15.90;81.90
9537;DHT22;4807;48.024;11.726;2023-06-04T21:11:38;15.90;81.70
9537;DHT22;4807;48.024;11.726;2023-06-04T21:14:48;15.90;81.90
9537;DHT22;4807;48.024;11.726;2023-06-04T21:17:56;15.90;81.90
9537;DHT22;4807;48.024;11.726;2023-06-04T21:21:05;15.90;81.90
9537;DHT22;4807;48.024;11.726;2023-06-04T21:24:15;16.00;82.30
9537;DHT22;4807;48.024;11.726;2023-06-04T21:27:24;16.00;82.40
9537;DHT22;4807;48.024;11.726;2023-06-04T21:30:33;16.00;82.60
9537;DHT22;4807;48.024;11.726;2023-06-04T21:33:44;15.90;83.00
9537;DHT22;4807;48.024;11.726;2023-06-04T21:36:52;15.70;83.90
9537;DHT22;4807;48.024;11.726;2023-06-04T21:40:00;15.70;85.40
9537;DHT22;4807;48.024;11.726;2023-06-04T21:43:10;15.70;85.50
9537;DHT22;4807;48.024;11.726;2023-06-04T21:46:20;15.60;85.60
9537;DHT22;4807;48.024;11.726;2023-06-04T21:49:28;15.60;86.20
9537;DHT22;4807;48.024;11.726;2023-06-04T21:52:38;15.40;87.30
9537;DHT22;4807;48.024;11.726;2023-06-04T21:55:47;15.30;87.30
9537;DHT22;4807;48.024;11.726;2023-06-04T21:58:55;15.40;87.00
9537;DHT22;4807;48.024;11.726;2023-06-04T22:02:06;15.30;87.30
9537;DHT22;4807;48.024;11.726;2023-06-04T22:05:15;15.30;87.60
9537;DHT22;4807;48.024;11.726;2023-06-04T22:08:23;15.20;88.10
9537;DHT22;4807;48.024;11.726;2023-06-04T22:11:32;15.30;89.20
9537;DHT22;4807;48.024;11.726;2023-06-04T22:14:40;15.40;89.60
9537;DHT22;4807;48.024;11.726;2023-06-04T22:17:50;15.30;90.00
9537;DHT22;4807;48.024;11.726;2023-06-04T22:20:58;15.20;90.40
9537;DHT22;4807;48.024;11.726;2023-06-04T22:24:07;15.00;90.60
9537;DHT22;4807;48.024;11.726;2023-06-04T22:27:16;14.90;91.00
9537;DHT22;4807;48.024;11.726;2023-06-04T22:30:25;14.90;91.20
9537;DHT22;4807;48.024;11.726;2023-06-04T22:33:34;14.90;91.10
9537;DHT22;4807;48.024;11.726;2023-06-04T22:36:43;15.00;91.20
9537;DHT22;4807;48.024;11.726;2023-06-04T22:39:51;15.00;91.20
9537;DHT22;4807;48.024;11.726;2023-06-04T22:43:00;15.10;91.30
9537;DHT22;4807;48.024;11.726;2023-06-04T22:46:09;15.00;91.80
9537;DHT22;4807;48.024;11.726;2023-06-04T22:49:19;15.10;91.80
9537;DHT22;4807;48.024;11.726;2023-06-04T22:52:27;15.20;92.00
9537;DHT22;4807;48.024;11.726;2023-06-04T22:55:35;15.20;91.80
9537;DHT22;4807;48.024;11.726;2023-06-04T22:58:44;15.20;92.10
9537;DHT22;4807;48.024;11.726;2023-06-04T23:01:52;15.20;92.30
9537;DHT22;4807;48.024;11.726;2023-06-04T23:05:02;15.20;92.40
9537;DHT22;4807;48.024;11.726;2023-06-04T23:08:11;15.30;92.40
9537;DHT22;4807;48.024;11.726;2023-06-04T23:11:19;15.40;92.70
9537;DHT22;4807;48.024;11.726;2023-06-04T23:14:27;15.40;92.70
9537;DHT22;4807;48.024;11.726;2023-06-04T23:17:36;15.40;92.80
9537;DHT22;4807;48.024;11.726;2023-06-04T23:20:46;15.40;93.00
9537;DHT22;4807;48.024;11.726;2023-06-04T23:23:54;15.70;93.10
9537;DHT22;4807;48.024;11.726;2023-06-04T23:27:03;15.50;93.10
9537;DHT22;4807;48.024;11.726;2023-06-04T23:30:12;15.40;93.40
9537;DHT22;4807;48.024;11.726;2023-06-04T23:33:21;15.30;93.60